• Join FlightAware (Why Join?)
  • Login
  • US Flag 
06:28PM EST


 

Airport Tracker/Info


-or-


 

Live Flight TrackerFlight Track Log ✈ N830QS ✈ 02-Jul-2013 ✈ KSUS - KMKY

Flight Track Log - Related Links

Times and Time Zones

All times are in EDT time to prevent confusion due to time zone crossing. See the N830QS flight status page for this flight to view local times or setup timezone preferences in your user account.

Time Position Orientation Groundspeed Altitude Reporting Facility
EDT Latitude Longitude Course Direction KTS MPH feet Rate Location/Type
06:12PM 38.6667 -90.6167 158° South 189 217 1,600  Level Gateway (St. Louis) TRACON
06:13PM 38.5936 -90.5783 158° South 222 255 3,400 1,740 Climbing Kansas City Center
06:14PM 38.5272 -90.5753 178° South 233 268 5,700 2,340 Climbing Kansas City Center
06:15PM 38.4503 -90.5708 177° South 257 296 8,300 2,880 Climbing Kansas City Center
06:16PM 38.3692 -90.5661 177° South 280 322 11,700 3,300 Climbing Kansas City Center
06:17PM 38.2683 -90.5606 178° South 295 339 15,200 2,880 Climbing Kansas City Center
06:18PM 38.1797 -90.5558 178° South 309 356 17,700 2,280 Climbing Kansas City Center
06:19PM 38.0872 -90.5672 186° South 330 380 20,000 2,220 Climbing Kansas City Center
06:20PM 37.9933 -90.5772 185° South 335 386 22,300 2,040 Climbing Kansas City Center
06:21PM 37.8994 -90.5875 185° South 338 389 24,300 1,800 Climbing Kansas City Center
06:22PM 37.8039 -90.5694 172° South 349 402 26,100 1,920 Climbing Kansas City Center
06:24PM 37.6936 -90.5092 157° South 359 413 28,300 1,680 Climbing Kansas City Center
06:25PM 37.6011 -90.4611 158° South 361 415 29,600 1,620 Climbing Kansas City Center
06:26PM 37.5092 -90.4131 157° South 358 412 31,700 2,160 Climbing Kansas City Center
06:27PM 37.4247 -90.3683 157° South 336 387 34,100 2,220 Climbing Kansas City Center
06:28PM 37.3267 -90.3197 158° South 325 374 36,300 1,380 Climbing Kansas City Center
06:29PM 37.2472 -90.2744 156° South 316 364 37,000 300 Climbing Kansas City Center
06:30PM 37.1606 -90.2294 158° South 330 380 37,000 120 Level Kansas City Center
06:31PM 37.0664 -90.1828 158° South 354 407 37,300 900 Climbing Kansas City Center
06:32PM 36.9806 -90.1350 156° South 343 395 38,900 1,380 Climbing Kansas City Center
06:33PM 36.9169 -90.1053 160° South 336 387 39,800 840 Climbing Memphis Center
06:34PM 36.8336 -90.0614 157° South 331 381 40,400 600 Climbing Memphis Center
06:35PM 36.7500 -90.0178 157° South 331 381 41,000 300 Climbing Memphis Center
06:36PM 36.6644 -89.9742 158° South 331 381 41,000  Level Memphis Center
06:37PM 36.5769 -89.9306 158° South 331 381 41,000  Level Memphis Center
06:38PM 36.4975 -89.8561 143° Southeast 338 389 41,000  Level Memphis Center
06:39PM 36.4200 -89.7742 140° Southeast 356 410 41,000  Level Memphis Center
06:40PM 36.3422 -89.6872 138° Southeast 368 423 41,000  Level Memphis Center
06:41PM 36.2583 -89.6028 141° Southeast 380 437 41,000  Level Memphis Center
06:42PM 36.1786 -89.5136 138° Southeast 386 444 41,000  Level Memphis Center
06:43PM 36.1008 -89.4244 137° Southeast 386 444 41,000  Level Memphis Center
06:44PM 36.0208 -89.3381 139° Southeast 386 444 41,000  Level Memphis Center
06:45PM 35.9408 -89.2494 138° Southeast 386 444 41,000  Level Memphis Center
06:46PM 35.8631 -89.1658 139° Southeast 386 444 41,000  Level Memphis Center
06:47PM 35.7828 -89.0800 139° Southeast 386 444 41,000  Level Memphis Center
06:48PM 35.7047 -88.9944 138° Southeast 386 444 41,000  Level Memphis Center
06:49PM 35.6203 -88.8986 137° Southeast 379 436 41,000  Level Memphis Center
06:50PM 35.5400 -88.8133 139° Southeast 374 430 41,000  Level Memphis Center
06:51PM 35.4661 -88.7383 140° Southeast 385 443 41,000  Level Memphis Center
06:52PM 35.3836 -88.6483 138° Southeast 375 432 41,000  Level Memphis Center
06:53PM 35.3053 -88.5658 139° Southeast 375 432 41,000  Level Memphis Center
06:54PM 35.2267 -88.4836 139° Southeast 375 432 41,000  Level Memphis Center
06:55PM 35.1483 -88.4092 142° Southeast 364 419 41,000  Level Memphis Center
06:56PM 35.0700 -88.3272 139° Southeast 364 419 41,000  Level Memphis Center
06:57PM 34.9892 -88.2431 140° Southeast 369 425 41,000  Level Memphis Center
06:58PM 34.9169 -88.1614 137° Southeast 382 440 41,000  Level Memphis Center
06:59PM 34.8403 -88.0825 140° Southeast 387 445 41,000  Level Memphis Center
07:00PM 34.7594 -87.9986 140° Southeast 380 437 41,000  Level Memphis Center
07:01PM 34.6808 -87.9200 141° Southeast 380 437 41,000  Level Memphis Center
07:02PM 34.5997 -87.8367 140° Southeast 380 437 41,000  Level Memphis Center
07:03PM 34.5125 -87.7483 140° Southeast 380 437 41,000  Level Memphis Center
07:04PM 34.4336 -87.6703 141° Southeast 380 437 41,000  Level Memphis Center
07:06PM 34.2775 -87.5156 141° Southeast 392 451 41,000  Level Atlanta Center
07:07PM 34.1983 -87.4319 139° Southeast 392 451 41,000  Level Atlanta Center
07:08PM 34.1169 -87.3508 140° Southeast 387 445 41,000  Level Atlanta Center
07:09PM 34.0400 -87.2700 139° Southeast 382 440 41,000  Level Atlanta Center
07:10PM 33.9586 -87.1894 141° Southeast 382 440 41,000  Level Atlanta Center
07:11PM 33.8792 -87.1089 140° Southeast 376 433 41,000  Level Atlanta Center
07:12PM 33.7978 -87.0261 140° Southeast 376 433 41,000  Level Atlanta Center
07:13PM 33.7161 -86.9458 141° Southeast 376 433 41,000  Level Atlanta Center
07:14PM 33.6278 -86.8803 148° Southeast 376 433 41,000  Level Atlanta Center
07:15PM 33.5328 -86.8425 162° South 363 418 41,000  Level Atlanta Center
07:16PM 33.4397 -86.8044 161° South 363 418 41,000  Level Atlanta Center
07:17PM 33.3447 -86.7642 160° South 363 418 41,000  Level Atlanta Center
07:18PM 33.2522 -86.6942 148° Southeast 355 409 41,000  Level Atlanta Center
07:19PM 33.1703 -86.6197 143° Southeast 360 414 41,000  Level Atlanta Center
07:20PM 33.0861 -86.5453 143° Southeast 373 429 41,000  Level Atlanta Center
07:21PM 33.0000 -86.4736 145° Southeast 373 429 41,000  Level Atlanta Center
07:22PM 32.9136 -86.4019 145° Southeast 378 435 41,000  Level Atlanta Center
07:23PM 32.8297 -86.3231 142° Southeast 378 435 41,000  Level Atlanta Center
07:24PM 32.7475 -86.2444 141° Southeast 378 435 41,000  Level Atlanta Center
07:25PM 32.6633 -86.1706 144° Southeast 378 435 41,000  Level Atlanta Center
07:26PM 32.5769 -86.0972 144° Southeast 378 435 41,000  Level Atlanta Center
07:27PM 32.4883 -86.0286 147° Southeast 386 444 41,000  Level Atlanta Center
07:28PM 32.4058 -85.9553 143° Southeast 388 447 41,000  Level Atlanta Center
07:30PM 32.2294 -85.7928 142° Southeast 389 448 41,000  Level Jacksonville Center
07:31PM 32.1453 -85.7217 144° Southeast 383 441 41,000  Level Jacksonville Center
07:32PM 32.0594 -85.6478 144° Southeast 383 441 41,000  Level Jacksonville Center
07:33PM 31.9733 -85.5742 144° Southeast 383 441 41,000  Level Jacksonville Center
07:34PM 31.8872 -85.4983 143° Southeast 383 441 41,000  Level Jacksonville Center
07:35PM 31.7989 -85.4250 145° Southeast 383 441 41,000  Level Jacksonville Center
07:36PM 31.7147 -85.3519 144° Southeast 383 441 41,000  Level Jacksonville Center
07:37PM 31.6264 -85.2811 146° Southeast 383 441 41,000  Level Jacksonville Center
07:38PM 31.5378 -85.2181 149° Southeast 383 441 41,000  Level Jacksonville Center
07:39PM 31.4425 -85.1669 155° Southeast 378 435 41,000  Level Jacksonville Center
07:40PM 31.3372 -85.1058 154° Southeast 378 435 41,000  Level Jacksonville Center
07:41PM 31.2442 -85.0503 153° Southeast 378 435 41,000  Level Jacksonville Center
07:42PM 31.1511 -84.9947 153° Southeast 383 441 41,000  Level Jacksonville Center
07:43PM 31.0581 -84.9369 152° Southeast 378 435 41,000  Level Jacksonville Center
07:44PM 30.9631 -84.8817 153° Southeast 378 435 41,000  Level Jacksonville Center
07:45PM 30.8678 -84.8264 154° Southeast 383 441 41,000  Level Jacksonville Center
07:46PM 30.7725 -84.7711 154° Southeast 383 441 41,000  Level Jacksonville Center
07:47PM 30.6794 -84.7164 153° Southeast 377 434 41,000  Level Jacksonville Center
07:48PM 30.5819 -84.6614 154° Southeast 382 440 41,000  Level Jacksonville Center
07:49PM 30.4867 -84.6042 153° Southeast 382 440 41,000  Level Jacksonville Center
07:50PM 30.3894 -84.5517 155° Southeast 382 440 41,000  Level Jacksonville Center
07:51PM 30.2961 -84.4972 153° Southeast 382 440 41,000  Level Jacksonville Center
07:52PM 30.1967 -84.4403 154° Southeast 382 440 41,000  Level Jacksonville Center
07:53PM 30.1011 -84.3836 153° Southeast 382 440 41,000  Level Jacksonville Center
07:54PM 30.0017 -84.3292 155° Southeast 382 440 41,000  Level Jacksonville Center
07:55PM 29.9083 -84.2775 154° Southeast 382 440 41,000  Level Jacksonville Center
07:56PM 29.8128 -84.2211 153° Southeast 382 440 41,000  Level Jacksonville Center
07:57PM 29.7194 -84.1719 155° Southeast 382 440 41,000  Level Jacksonville Center
07:58PM 29.6258 -84.1183 154° Southeast 377 434 41,000  Level Jacksonville Center
07:59PM 29.5325 -84.0669 154° Southeast 377 434 41,000  Level Jacksonville Center
08:00PM 29.4472 -84.0183 154° Southeast 383 441 41,000  Level Jacksonville Center
08:01PM 29.3519 -83.9622 153° Southeast 378 435 41,000  Level Jacksonville Center
08:02PM 29.2561 -83.9114 155° Southeast 378 435 41,000  Level Jacksonville Center
08:03PM 29.1628 -83.8581 153° Southeast 378 435 41,000  Level Jacksonville Center
08:04PM 29.0692 -83.8047 154° Southeast 378 435 41,000  Level Jacksonville Center
08:05PM 28.9714 -83.7494 154° Southeast 383 441 41,000  Level Jacksonville Center
08:06PM 28.8758 -83.6964 154° Southeast 383 441 41,000  Level Jacksonville Center
08:07PM 28.7822 -83.6436 154° Southeast 378 435 41,000 -120 Level Jacksonville Center
08:08PM 28.6864 -83.5908 154° Southeast 378 435 40,800 -780 Descending Jacksonville Center
08:09PM 28.5908 -83.5381 154° Southeast 378 435 39,500 -1,380 Descending Jacksonville Center
08:10PM 28.4908 -83.4831 154° Southeast 384 442 38,100 -1,440 Descending Jacksonville Center
08:12PM 28.2675 -83.3753 157° South 395 455 35,000 -1,020 Descending Miami Center
08:13PM 28.1592 -83.3736 179° South 386 444 35,000  Level Miami Center
08:14PM 28.0464 -83.3742 180° South 401 461 35,000 -240 Level Miami Center
08:15PM 27.9322 -83.3653 176° South 414 476 34,600 -1,080 Descending Miami Center
08:16PM 27.8283 -83.3053 153° Southeast 414 476 32,900 -1,620 Descending Miami Center
08:17PM 27.7317 -83.2297 145° Southeast 411 473 31,400 -1,680 Descending Miami Center
08:18PM 27.6350 -83.1517 144° Southeast 423 487 29,600 -1,800 Descending Miami Center
08:19PM 27.5342 -83.0736 146° Southeast 429 494 27,800 -1,800 Descending Miami Center
08:20PM 27.4372 -82.9958 145° Southeast 435 501 26,000 -1,800 Descending Miami Center
08:21PM 27.3425 -82.9206 145° Southeast 430 495 24,200 -1,800 Descending Miami Center
08:22PM 27.2597 -82.8556 145° Southeast 419 482 22,500 -1,800 Descending Miami Center
08:23PM 27.1625 -82.7831 146° Southeast 399 459 20,600 -1,740 Descending Miami Center
08:24PM 27.0756 -82.7156 145° Southeast 388 447 19,100 -1,560 Descending Miami Center
08:25PM 26.9883 -82.6506 146° Southeast 376 433 17,500 -1,800 Descending Miami Center
08:26PM 26.8811 -82.6197 166° South 367 422 15,600 -1,800 Descending Miami Center
08:27PM 26.7906 -82.5850 161° South 362 417 14,000 -1,500 Descending Miami Center
08:28PM 26.7153 -82.5372 150° Southeast 350 403 12,600 -1,380 Descending Miami Center
08:29PM 26.6531 -82.4739 138° Southeast 321 369 11,300 -960 Descending Miami Center
08:30PM 26.5994 -82.4039 131° Southeast 299 344 10,700 -1,140 Descending Miami Center
08:31PM 26.5456 -82.3364 132° Southeast 289 333 9,100 -1,500 Descending Miami Center
08:32PM 26.4956 -82.2761 133° Southeast 276 318 7,700 -1,500 Descending Miami Center
08:33PM 26.4378 -82.2061 133° Southeast 276 318 6,100 -1,320 Descending Miami Center
08:34PM 26.3875 -82.1483 134° Southeast 269 310 5,100 -1,080 Descending Miami Center
08:35PM 26.3397 -82.0858 130° Southeast 264 304 4,000 -1,140 Descending Miami Center
08:37PM 26.2334 -81.9579 144° Southeast  Level Estimated
08:44PM 25.9950 -81.6725 114° Southeast  Level Estimated
08:45PM 25.9950 -81.6725 114° Southeast  Level Estimated
08:46PM 25.9950 -81.6725 114° Southeast  Level Estimated
08:47PM 25.9950 -81.6725 114° Southeast  Level Estimated
08:48PM 25.9950 -81.6725 114° Southeast  Level Estimated